Data for 07/13/2017

Time Sea-Level Adjusted Pressure Absolute Pressure Temperature Relative Humidity Dew Point   
(mb) (inHg) (mb) (inHg) (C) (F) (%) (C) (F)
00:05 1021 30.15 850 25.1 20.9 69.6 48 9.5 49.2
00:10 1021 30.15 850 25.1 21 69.7 47 9.5 49.1
00:15 1021 30.15 850 25.1 21.1 69.9 47 9.4 49
00:20 1021 30.15 850 25.1 21.1 70 47 9.6 49.3
00:25 1021 30.15 850 25.1 20.9 69.5 49 9.8 49.6
00:30 1021 30.15 850 25.1 20.6 69 50 9.8 49.7
00:35 1021 30.15 850 25.1 20.3 68.5 50 9.7 49.4
00:40 1021 30.15 850 25.1 20.1 68.2 51 9.7 49.4
00:45 1021 30.15 850 25.1 19.9 67.9 51 9.7 49.5
00:50 1021 30.15 850 25.1 19.8 67.6 52 9.7 49.5
00:55 1021 30.15 850 25.1 19.5 67.2 53 9.8 49.6
01:00 1021 30.15 850 25.1 19.6 67.2 52 9.6 49.3
01:05 1021 30.15 850 25.1 19.7 67.4 52 9.7 49.5
01:10 1021 30.15 850 25.1 19.7 67.5 53 9.9 49.7
01:15 1021 30.15 850 25.1 19.7 67.4 52 9.7 49.5
01:20 1021 30.15 850 25.1 19.7 67.4 53 9.8 49.7
01:25 1021 30.15 850 25.1 19.6 67.2 53 9.9 49.8
01:30 1021 30.15 850 25.1 19.4 66.9 54 9.9 49.8
01:35 1021 30.15 850 25.1 19.4 67 54 9.9 49.8
01:40 1021 30.15 851 25.13 19.4 67 54 10 50
01:45 1021 30.15 851 25.13 19.2 66.6 54 9.7 49.5
01:50 1021 30.15 851 25.13 18.6 65.5 55 9.5 49
01:55 1021 30.15 851 25.13 18 64.4 56 9.1 48.4
02:00 1021 30.15 851 25.13 17.9 64.2 56 9.2 48.5
02:05 1021 30.15 851 25.13 17.8 64 56 9.1 48.4
02:10 1021 30.15 851 25.13 17.8 64 56 9.1 48.3
02:10 1021 30.15 851 25.13 17.8 64 56 9.1 48.3
02:15 1021 30.15 851 25.13 17.7 63.8 56 8.9 48
02:20 1021 30.15 850 25.1 17.7 63.9 56 8.9 48.1
02:25 1021 30.15 850 25.1 17.7 63.8 58 9.4 48.9
02:30 1021 30.15 850 25.1 17.8 64.1 58 9.6 49.3
02:35 1021 30.15 851 25.13 17.9 64.1 57 9.4 48.9
02:40 1021 30.15 851 25.13 17.4 63.3 59 9.3 48.8
02:45 1021 30.15 851 25.13 17.4 63.3 59 9.4 48.9
02:50 1021 30.15 851 25.13 17.6 63.7 58 9.3 48.7
02:55 1021 30.15 851 25.13 17.6 63.6 58 9.3 48.8
03:00 1021 30.15 851 25.13 17.8 64 58 9.5 49.2
03:05 1021 30.15 851 25.13 18 64.4 58 9.6 49.3
03:10 1021 30.15 851 25.13 18.1 64.5 58 9.7 49.5
03:15 1021 30.15 851 25.13 18 64.4 58 9.7 49.4
03:20 1021 30.15 851 25.13 17.5 63.6 59 9.7 49.4
03:25 1021 30.15 851 25.13 17 62.5 61 9.4 48.9
03:30 1021 30.15 851 25.13 17.1 62.7 61 9.5 49.1
03:35 1021 30.15 851 25.13 16.9 62.4 60 9.2 48.6
03:40 1022 30.18 851 25.13 16.9 62.4 60 9.3 48.7
03:45 1022 30.18 851 25.13 16.7 62.1 62 9.5 49.2
03:50 1022 30.18 851 25.13 16.5 61.7 61 9.1 48.4
03:55 1022 30.18 851 25.13 16.3 61.3 62 9.1 48.4
04:00 1022 30.18 851 25.13 16.6 62 61 9.1 48.4
04:05 1022 30.18 851 25.13 16.9 62.3 60 9.2 48.5
04:10 1022 30.18 851 25.13 17.1 62.8 59 9.2 48.5
04:15 1022 30.18 851 25.13 17.5 63.5 59 9.4 48.9
04:20 1022 30.18 851 25.13 17.8 64 58 9.5 49
04:25 1022 30.18 851 25.13 17.8 64 58 9.6 49.2
04:30 1022 30.18 851 25.13 17.8 64.1 58 9.6 49.2
04:35 1022 30.18 851 25.13 17.8 64 59 9.6 49.3
04:40 1022 30.18 851 25.13 17.7 63.8 58 9.5 49.1
04:45 1022 30.18 851 25.13 17.7 63.9 58 9.6 49.2
04:50 1022 30.18 851 25.13 17.8 64 59 9.8 49.6
04:55 1022 30.18 851 25.13 17.7 63.9 59 9.7 49.4
05:00 1022 30.18 851 25.13 17.7 63.8 59 9.6 49.3
05:05 1022 30.18 851 25.13 17.6 63.6 60 9.7 49.5
05:10 1022 30.18 851 25.13 17.5 63.5 60 9.6 49.4
05:15 1022 30.18 851 25.13 17.6 63.7 59 9.6 49.3
05:20 1022 30.18 851 25.13 17.7 63.9 58 9.4 49
05:25 1022 30.18 851 25.13 17.9 64.1 58 9.5 49.1
05:30 1022 30.18 851 25.13 17.9 64.2 58 9.5 49.1
05:35 1022 30.18 851 25.13 17.9 64.2 57 9.5 49
05:40 1022 30.18 851 25.13 17.9 64.2 57 9.4 48.9
05:45 1022 30.18 851 25.13 17.9 64.2 56 9.2 48.5
05:50 1022 30.18 851 25.13 18 64.3 55 8.9 48
05:55 1022 30.18 851 25.13 17.7 63.9 56 8.9 48.1
06:00 1022 30.18 851 25.13 17.8 64 56 9 48.2
06:05 1022 30.18 851 25.13 17.8 64.1 57 9.2 48.6
06:10 1022 30.18 851 25.13 17.9 64.2 56 9.1 48.4
06:15 1022 30.18 852 25.16 18 64.3 59 9.9 49.9
06:20 1022 30.18 851 25.13 18.1 64.6 57 9.5 49
06:25 1022 30.18 851 25.13 18.2 64.8 54 8.8 47.9
06:30 1022 30.18 851 25.13 18.3 65 54 8.9 48.1
06:35 1022 30.18 852 25.16 18.6 65.4 53 8.9 48.1
06:40 1022 30.18 852 25.16 19.1 66.4 51 8.9 47.9
06:45 1022 30.18 852 25.16 19.3 66.8 50 8.9 48
06:50 1022 30.18 852 25.16 19.6 67.2 48 8.3 47
06:55 1022 30.18 852 25.16 20 67.9 47 8.3 47
07:00 1022 30.18 852 25.16 20.7 69.2 46 8.9 48.1
07:05 1022 30.18 852 25.16 20.9 69.7 46 9.1 48.3
07:10 1022 30.18 852 25.16 21.1 70 45 8.7 47.7
07:15 1022 30.18 852 25.16 20.5 68.8 45 8.3 46.9
07:20 1023 30.21 852 25.16 20.2 68.3 45 8.1 46.6
07:25 1023 30.21 852 25.16 20.6 69.1 43 7.9 46.3
07:30 1023 30.21 852 25.16 20.9 69.6 45 8.7 47.6
07:35 1023 30.21 852 25.16 20.9 69.6 45 8.7 47.7
07:40 1022 30.18 852 25.16 20.8 69.5 45 8.6 47.4
07:45 1022 30.18 852 25.16 20.7 69.3 44 8.2 46.8
07:50 1022 30.18 852 25.16 20.9 69.6 45 8.7 47.7
07:55 1022 30.18 852 25.16 21.7 71.1 43 8.8 47.8
08:00 1022 30.18 852 25.16 21.9 71.3 45 9.4 48.9
08:05 1022 30.18 852 25.16 22.3 72.2 40 8.4 47.2
08:10 1022 30.18 852 25.16 22.3 72.1 41 8.7 47.6
08:15 1022 30.18 851 25.13 22.3 72.2 38 7.6 45.6
08:20 1022 30.18 852 25.16 22.4 72.2 37 7 44.6
08:25 1022 30.18 851 25.13 22.9 73.1 36 7.2 44.9
08:30 1022 30.18 851 25.13 23.4 74 36 7.6 45.7
08:35 1022 30.18 851 25.13 23.7 74.7 36 7.9 46.1
08:40 1022 30.18 852 25.16 24.1 75.3 34 7.6 45.7
08:45 1022 30.18 852 25.16 24.1 75.4 35 7.7 45.9
08:50 1022 30.18 852 25.16 24.9 76.7 33 7.7 45.8
08:55 1022 30.18 852 25.16 25.6 78.1 32 8 46.5
09:00 1022 30.18 852 25.16 25.9 78.6 37 10.2 50.4
09:05 1022 30.18 852 25.16 24.6 76.3 42 10.9 51.7
09:10 1023 30.21 852 25.16 24.2 75.5 40 10 49.9
09:15 1023 30.21 852 25.16 24.6 76.2 39 9.8 49.7
09:20 1023 30.21 852 25.16 25 77 36 9.1 48.4
09:25 1023 30.21 852 25.16 25 77 38 9.8 49.7
09:30 1023 30.21 852 25.16 25.2 77.3 37 9.6 49.3
09:35 1023 30.21 852 25.16 25.4 77.7 36 9.3 48.7
09:40 1023 30.21 852 25.16 25.8 78.4 35 9.4 48.9
09:45 1023 30.21 852 25.16 25.7 78.2 36 9.7 49.4
09:50 1023 30.21 852 25.16 25.7 78.3 35 9.3 48.7
09:55 1023 30.21 852 25.16 25.5 77.9 35 9.3 48.7
10:00 1023 30.21 852 25.16 26.4 79.5 32 8.7 47.6
10:05 1023 30.21 852 25.16 26.2 79.2 35 9.9 49.9
10:10 1023 30.21 852 25.16 25.3 77.5 36 9.3 48.7
10:15 1023 30.21 852 25.16 26.2 79.2 33 8.9 48.1
10:20 1023 30.21 852 25.16 26.8 80.2 32 8.9 48.1
10:25 1023 30.21 852 25.16 27.2 80.9 31 8.9 48
10:30 1023 30.21 852 25.16 27.6 81.6 31 9.1 48.4
10:35 1023 30.21 852 25.16 27.7 81.8 31 9.4 48.9
10:40 1023 30.21 852 25.16 27.6 81.6 32 9.5 49.1
10:45 1023 30.21 852 25.16 27.6 81.6 31 9 48.2
10:50 1023 30.21 852 25.16 27.4 81.3 29 8 46.5
10:55 1023 30.21 852 25.16 27.2 80.9 30 8.2 46.7
11:00 1023 30.21 852 25.16 27.2 81 28 7.4 45.3
11:05 1023 30.21 852 25.16 27.8 82 27 7.1 44.8
11:10 1023 30.21 852 25.16 28.1 82.6 27 7.5 45.5
11:15 1022 30.18 852 25.16 28.5 83.2 26 7.4 45.3
11:20 1022 30.18 852 25.16 29.2 84.5 25 7.5 45.4
11:25 1022 30.18 852 25.16 29.1 84.3 25 7.1 44.8
11:30 1022 30.18 852 25.16 29.4 84.9 24 6.8 44.3
11:35 1022 30.18 852 25.16 29.8 85.6 23 6.8 44.2
11:40 1022 30.18 852 25.16 29.7 85.4 24 7.2 45
11:45 1022 30.18 852 25.16 29.1 84.4 24 6.6 43.9
11:50 1022 30.18 852 25.16 29.8 85.6 23 6.7 44.1
11:55 1022 30.18 852 25.16 30.8 87.4 20 5.9 42.6
12:00 1022 30.18 852 25.16 30.7 87.2 21 6.5 43.7
12:05 1022 30.18 852 25.16 30.3 86.5 21 6 42.8
12:10 1022 30.18 852 25.16 30.7 87.3 21 6.2 43.1
12:15 1022 30.18 851 25.13 31 87.9 19 5.4 41.8
12:20 1022 30.18 851 25.13 31 87.8 20 6 42.9
12:25 1022 30.18 851 25.13 31.2 88.1 21 6.3 43.4
12:30 1022 30.18 851 25.13 31.5 88.7 21 6.7 44.1
12:35 1022 30.18 851 25.13 31.9 89.5 21 7.3 45.2
12:40 1022 30.18 851 25.13 32 89.6 18 5.2 41.4
12:45 1022 30.18 851 25.13 32.5 90.4 18 5.4 41.7
12:50 1022 30.18 851 25.13 32.5 90.4 17 4.7 40.5
12:55 1022 30.18 851 25.13 32.4 90.3 17 4.9 40.8
13:00 1022 30.18 851 25.13 32.3 90.2 20 6.9 44.4
13:05 1022 30.18 851 25.13 30.9 87.6 20 5.8 42.4
13:10 1022 30.18 851 25.13 31.2 88.2 20 5.9 42.6
13:15 1022 30.18 851 25.13 31.2 88.2 17 3.9 39
13:20 1022 30.18 851 25.13 32.1 89.7 14 1.8 35.3
13:25 1022 30.18 851 25.13 32.5 90.5 14 2.2 36
13:30 1022 30.18 851 25.13 32.7 90.9 13 0.6 33.1
13:35 1022 30.18 851 25.13 33.3 92 11 -0.3 31.5
13:40 1021 30.15 851 25.13 33.1 91.7 13 1.5 34.7
13:45 1021 30.15 851 25.13 32.3 90.2 14 1.8 35.2
13:50 1021 30.15 851 25.13 32.4 90.2 14 2.2 35.9
13:55 1021 30.15 851 25.13 31.9 89.4 14 1.3 34.3
14:00 1021 30.15 850 25.1 31.3 88.3 13 0 32
14:05 1021 30.15 850 25.1 31.4 88.5 14 0.6 33.1
14:10 1021 30.15 850 25.1 31.9 89.4 13 0 32.1
14:15 1021 30.15 850 25.1 31.7 89 12 -0.4 31.2
14:20 1021 30.15 850 25.1 31.2 88.2 13 -0.1 31.8
14:25 1021 30.15 850 25.1 32 89.5 12 -0.5 31
14:30 1021 30.15 850 25.1 32.2 89.9 13 0.5 32.9
14:35 1021 30.15 850 25.1 32.4 90.4 12 -0.4 31.3
14:40 1021 30.15 850 25.1 32 89.6 12 -0.2 31.7
14:45 1021 30.15 850 25.1 32.5 90.5 12 -0.4 31.3
14:50 1021 30.15 850 25.1 33.2 91.7 12 0.6 33
14:55 1021 30.15 850 25.1 32.8 91 12 0.6 33.1
15:00 1021 30.15 850 25.1 33.2 91.7 13 1 33.8
15:05 1021 30.15 850 25.1 33 91.4 13 1.3 34.4
15:10 1021 30.15 850 25.1 33 91.4 12 0.5 32.9
15:15 1021 30.15 850 25.1 32.3 90.1 13 0.2 32.4
15:20 1021 30.15 850 25.1 31.7 89.1 14 0.9 33.5
15:25 1021 30.15 850 25.1 32.7 90.8 13 1.4 34.4
15:30 1021 30.15 850 25.1 32.8 91 13 1.1 34
15:35 1021 30.15 850 25.1 33.6 92.5 13 1.3 34.4
15:40 1021 30.15 850 25.1 33.4 92 13 1.3 34.4
15:45 1021 30.15 850 25.1 32.3 90.2 12 0.2 32.3
15:50 1021 30.15 850 25.1 32.1 89.8 13 0.9 33.7
15:55 1020 30.12 850 25.1 32 89.5 13 0.8 33.4
16:00 1020 30.12 850 25.1 32.5 90.4 13 0.9 33.7
16:05 1020 30.12 850 25.1 33 91.4 13 1 33.7
16:10 1020 30.12 850 25.1 33.5 92.3 12 0.9 33.6
16:15 1020 30.12 850 25.1 33.6 92.5 13 1.6 34.9
16:20 1020 30.12 850 25.1 33.1 91.5 13 1.5 34.7
16:25 1020 30.12 850 25.1 33.6 92.4 12 0.3 32.6
16:30 1020 30.12 850 25.1 33.1 91.5 13 1.1 34
16:35 1020 30.12 850 25.1 32.7 90.9 12 0.2 32.4
16:40 1020 30.12 850 25.1 33.3 91.9 13 1.5 34.7
16:45 1020 30.12 849 25.07 33.7 92.6 13 1.8 35.2
16:50 1020 30.12 849 25.07 33.7 92.7 12 0.7 33.2
16:55 1020 30.12 849 25.07 33.3 92 12 0.4 32.8
17:00 1020 30.12 849 25.07 33.1 91.6 13 1.3 34.4
17:05 1020 30.12 849 25.07 33.1 91.6 13 1.1 34
17:10 1020 30.12 849 25.07 33.3 91.9 13 1.6 35
17:15 1020 30.12 849 25.07 32.6 90.6 14 2 35.6
17:20 1020 30.12 849 25.07 32.3 90.2 13 1.3 34.3
17:25 1020 30.12 849 25.07 32.5 90.5 13 1.4 34.5
17:30 1020 30.12 849 25.07 32.3 90.1 13 1.1 33.9
17:35 1020 30.12 849 25.07 32.1 89.7 14 1.9 35.4
17:40 1020 30.12 849 25.07 32.1 89.8 13 0.9 33.7
17:45 1020 30.12 849 25.07 31.9 89.4 13 0.9 33.6
17:50 1020 30.12 849 25.07 31.7 89.1 14 1.2 34.2
17:55 1020 30.12 849 25.07 31.9 89.4 14 1.7 35.1
18:00 1020 30.12 849 25.07 32 89.7 13 0.3 32.5
18:05 1020 30.12 849 25.07 32.1 89.7 13 0.3 32.6
18:10 1020 30.12 849 25.07 31.9 89.4 13 0.5 32.9
18:15 1020 30.12 849 25.07 31.9 89.5 14 1.5 34.8
18:20 1020 30.12 849 25.07 32 89.5 13 0.6 33.1
18:25 1020 30.12 849 25.07 32 89.5 13 0.4 32.6
18:30 1020 30.12 849 25.07 31.6 88.9 14 1.1 34
18:35 1020 30.12 849 25.07 31.6 88.9 14 0.9 33.7
18:40 1020 30.12 849 25.07 31.6 88.8 14 1.3 34.3
18:45 1020 30.12 849 25.07 31.5 88.6 14 1.3 34.3
18:50 1020 30.12 849 25.07 31.5 88.6 14 1.5 34.7
18:55 1020 30.12 849 25.07 31.4 88.5 14 0.9 33.7
19:00 1020 30.12 849 25.07 31.3 88.4 14 1.1 33.9
19:05 1020 30.12 849 25.07 31.2 88.1 15 1.4 34.5
19:10 1020 30.12 849 25.07 31.1 88 14 1.1 33.9
19:15 1020 30.12 849 25.07 31.1 87.9 14 0.9 33.6
19:20 1020 30.12 849 25.07 30.9 87.6 15 1.7 35.1
19:25 1020 30.12 849 25.07 30.7 87.2 15 1.7 35.1
19:30 1020 30.12 849 25.07 30.5 86.8 18 4.2 39.5
19:35 1020 30.12 849 25.07 30.1 86.3 21 5.5 42
19:40 1020 30.12 849 25.07 29.7 85.5 22 6.3 43.3
19:45 1020 30.12 849 25.07 29.3 84.7 24 6.9 44.4
19:50 1020 30.12 849 25.07 28.9 84 23 6.2 43.1
19:55 1020 30.12 849 25.07 28.5 83.3 27 7.8 46
20:00 1020 30.12 849 25.07 28 82.3 29 8.5 47.3
20:05 1020 30.12 849 25.07 28 82.4 25 6.6 43.9
20:10 1020 30.12 849 25.07 27.9 82.2 29 8.4 47.1
20:15 1020 30.12 849 25.07 27.1 80.8 30 8.5 47.4
20:20 1020 30.12 849 25.07 26.6 79.9 31 8.3 46.9
20:25 1020 30.12 849 25.07 26 78.9 32 8.2 46.8
20:30 1020 30.12 849 25.07 25.5 78 32 7.9 46.3
20:35 1020 30.12 850 25.1 25.1 77.2 33 7.8 46.1
20:40 1020 30.12 850 25.1 24.7 76.4 32 7.2 44.9
20:45 1020 30.12 850 25.1 24.5 76 33 7.2 45
20:50 1020 30.12 850 25.1 24.4 75.8 33 7.1 44.8
20:55 1021 30.15 850 25.1 24.4 76 32 7.1 44.7
21:00 1021 30.15 850 25.1 24.6 76.2 32 6.9 44.4
21:05 1021 30.15 850 25.1 24.3 75.7 33 7.3 45.1
21:10 1021 30.15 850 25.1 23.8 74.9 33 6.8 44.3
21:15 1021 30.15 850 25.1 23.9 75.1 31 5.9 42.7
21:20 1021 30.15 850 25.1 24.2 75.6 31 6.2 43.2
21:25 1021 30.15 850 25.1 24.1 75.4 32 6.8 44.2
21:30 1021 30.15 850 25.1 23.6 74.6 33 6.4 43.6
21:35 1021 30.15 850 25.1 23.4 74.1 32 6.1 43
21:40 1021 30.15 850 25.1 23.4 74.2 32 6.2 43.1
21:45 1021 30.15 850 25.1 23.3 73.9 33 6.3 43.3
21:50 1021 30.15 850 25.1 23.5 74.2 32 6.1 43
21:55 1021 30.15 850 25.1 23.4 74.2 32 5.8 42.5
22:00 1021 30.15 850 25.1 23.4 74.2 31 5.4 41.8
22:05 1021 30.15 850 25.1 23.5 74.2 31 5.3 41.6
22:10 1021 30.15 850 25.1 23.6 74.5 30 5.1 41.2
22:15 1021 30.15 850 25.1 23.7 74.6 30 5.4 41.7
22:20 1021 30.15 850 25.1 23.5 74.3 29 4.8 40.6
22:25 1021 30.15 850 25.1 23.8 74.8 30 5.6 42.1
22:30 1021 30.15 850 25.1 23.5 74.2 30 5.1 41.2
22:35 1021 30.15 850 25.1 23.3 73.9 30 5 41
22:40 1021 30.15 850 25.1 23.2 73.8 31 5.2 41.3
22:45 1021 30.15 850 25.1 23.2 73.7 30 5 41
22:50 1021 30.15 850 25.1 23.2 73.8 29 4.4 40
22:55 1021 30.15 850 25.1 23.4 74 28 4 39.2
23:00 1021 30.15 850 25.1 23.5 74.4 29 4.7 40.4
23:05 1021 30.15 850 25.1 23.5 74.2 28 4.2 39.5
23:10 1021 30.15 850 25.1 23.6 74.4 28 4.1 39.4
23:15 1021 30.15 850 25.1 23.5 74.2 28 4.1 39.4
23:20 1021 30.15 850 25.1 23.3 73.9 28 4.2 39.6
23:25 1021 30.15 850 25.1 23.2 73.7 28 4.1 39.4
23:30 1021 30.15 850 25.1 23.1 73.7 29 4.2 39.5
23:35 1021 30.15 850 25.1 23.1 73.6 28 4 39.2
23:40 1021 30.15 850 25.1 23 73.4 29 4.1 39.3
23:45 1021 30.15 850 25.1 22.9 73.2 29 4.3 39.8
23:50 1021 30.15 850 25.1 22.7 72.8 30 4.2 39.5
23:55 1021 30.15 850 25.1 22.5 72.5 29 3.9 39.1
24:00 1021 30.15 850 25.1 22.7 72.8 29 3.8 38.9